sensor_id;sensor_type;location;lat;lon;timestamp;temperature;humidity
5196;DHT22;2617;51.006;12.436;2023-12-20T00:01:59;4.30;99.90
5196;DHT22;2617;51.006;12.436;2023-12-20T00:07:00;4.30;99.90
5196;DHT22;2617;51.006;12.436;2023-12-20T00:12:02;4.30;99.90
5196;DHT22;2617;51.006;12.436;2023-12-20T00:17:04;4.30;99.90
5196;DHT22;2617;51.006;12.436;2023-12-20T00:22:06;4.30;99.90
5196;DHT22;2617;51.006;12.436;2023-12-20T00:27:07;4.20;99.90
5196;DHT22;2617;51.006;12.436;2023-12-20T00:32:10;4.20;99.90
5196;DHT22;2617;51.006;12.436;2023-12-20T00:37:11;4.20;99.90
5196;DHT22;2617;51.006;12.436;2023-12-20T00:42:13;4.20;99.90
5196;DHT22;2617;51.006;12.436;2023-12-20T00:47:15;4.30;99.90
5196;DHT22;2617;51.006;12.436;2023-12-20T00:52:17;4.20;99.90
5196;DHT22;2617;51.006;12.436;2023-12-20T00:57:19;4.20;99.90
5196;DHT22;2617;51.006;12.436;2023-12-20T01:02:21;4.20;99.90
5196;DHT22;2617;51.006;12.436;2023-12-20T01:07:24;4.20;99.90
5196;DHT22;2617;51.006;12.436;2023-12-20T01:12:26;4.20;99.90
5196;DHT22;2617;51.006;12.436;2023-12-20T01:17:28;4.30;99.90
5196;DHT22;2617;51.006;12.436;2023-12-20T01:22:30;4.20;99.90
5196;DHT22;2617;51.006;12.436;2023-12-20T01:27:32;4.30;99.90
5196;DHT22;2617;51.006;12.436;2023-12-20T01:32:34;4.30;99.90
5196;DHT22;2617;51.006;12.436;2023-12-20T01:37:35;4.30;99.90
5196;DHT22;2617;51.006;12.436;2023-12-20T01:42:37;4.30;99.90
5196;DHT22;2617;51.006;12.436;2023-12-20T01:47:39;4.20;99.90
5196;DHT22;2617;51.006;12.436;2023-12-20T01:52:41;4.30;99.90
5196;DHT22;2617;51.006;12.436;2023-12-20T01:57:42;4.30;99.90
5196;DHT22;2617;51.006;12.436;2023-12-20T02:02:46;4.30;99.90
5196;DHT22;2617;51.006;12.436;2023-12-20T02:07:47;4.30;99.90
5196;DHT22;2617;51.006;12.436;2023-12-20T02:12:49;4.30;99.90
5196;DHT22;2617;51.006;12.436;2023-12-20T02:17:51;4.30;99.90
5196;DHT22;2617;51.006;12.436;2023-12-20T02:22:53;4.30;99.90
5196;DHT22;2617;51.006;12.436;2023-12-20T02:27:55;4.30;99.90
5196;DHT22;2617;51.006;12.436;2023-12-20T02:32:58;4.30;99.90
5196;DHT22;2617;51.006;12.436;2023-12-20T02:37:59;4.20;99.90
5196;DHT22;2617;51.006;12.436;2023-12-20T02:43:01;4.30;99.90
5196;DHT22;2617;51.006;12.436;2023-12-20T02:48:03;4.20;99.90
5196;DHT22;2617;51.006;12.436;2023-12-20T02:53:04;4.20;99.90
5196;DHT22;2617;51.006;12.436;2023-12-20T02:58:06;4.30;99.90
5196;DHT22;2617;51.006;12.436;2023-12-20T03:03:08;4.20;99.90
5196;DHT22;2617;51.006;12.436;2023-12-20T03:08:10;4.30;99.90
5196;DHT22;2617;51.006;12.436;2023-12-20T03:13:12;4.30;99.90
5196;DHT22;2617;51.006;12.436;2023-12-20T03:18:14;4.20;99.90
5196;DHT22;2617;51.006;12.436;2023-12-20T03:23:16;4.30;99.90
5196;DHT22;2617;51.006;12.436;2023-12-20T03:28:17;4.20;99.90
5196;DHT22;2617;51.006;12.436;2023-12-20T03:33:20;4.20;99.90
5196;DHT22;2617;51.006;12.436;2023-12-20T03:38:22;4.20;99.90
5196;DHT22;2617;51.006;12.436;2023-12-20T03:43:25;4.20;99.90
5196;DHT22;2617;51.006;12.436;2023-12-20T03:48:27;4.20;99.90
5196;DHT22;2617;51.006;12.436;2023-12-20T03:53:29;4.20;99.90
5196;DHT22;2617;51.006;12.436;2023-12-20T03:58:31;4.20;99.90
5196;DHT22;2617;51.006;12.436;2023-12-20T04:03:32;4.20;99.90
5196;DHT22;2617;51.006;12.436;2023-12-20T04:08:34;4.20;99.90
5196;DHT22;2617;51.006;12.436;2023-12-20T04:13:36;4.20;99.90
5196;DHT22;2617;51.006;12.436;2023-12-20T04:18:37;4.20;99.90
5196;DHT22;2617;51.006;12.436;2023-12-20T04:23:39;4.20;99.90
5196;DHT22;2617;51.006;12.436;2023-12-20T04:28:41;4.20;99.90
5196;DHT22;2617;51.006;12.436;2023-12-20T04:33:42;4.20;99.90
5196;DHT22;2617;51.006;12.436;2023-12-20T04:38:44;4.20;99.90
5196;DHT22;2617;51.006;12.436;2023-12-20T04:43:46;4.20;99.90
5196;DHT22;2617;51.006;12.436;2023-12-20T04:48:48;4.20;99.90
5196;DHT22;2617;51.006;12.436;2023-12-20T04:53:49;4.20;99.90
5196;DHT22;2617;51.006;12.436;2023-12-20T04:58:51;4.20;99.90
5196;DHT22;2617;51.006;12.436;2023-12-20T05:03:53;4.20;99.90
5196;DHT22;2617;51.006;12.436;2023-12-20T05:08:55;4.20;99.90
5196;DHT22;2617;51.006;12.436;2023-12-20T05:13:57;4.20;99.90
5196;DHT22;2617;51.006;12.436;2023-12-20T05:18:59;4.20;99.90
5196;DHT22;2617;51.006;12.436;2023-12-20T05:24:04;4.20;99.90
5196;DHT22;2617;51.006;12.436;2023-12-20T05:29:06;4.20;99.90
5196;DHT22;2617;51.006;12.436;2023-12-20T05:34:08;4.20;99.90
5196;DHT22;2617;51.006;12.436;2023-12-20T05:39:09;4.20;99.90
5196;DHT22;2617;51.006;12.436;2023-12-20T05:44:11;4.30;99.90
5196;DHT22;2617;51.006;12.436;2023-12-20T05:49:13;4.30;99.90
5196;DHT22;2617;51.006;12.436;2023-12-20T05:54:14;4.30;99.90
5196;DHT22;2617;51.006;12.436;2023-12-20T05:59:17;4.30;99.90
5196;DHT22;2617;51.006;12.436;2023-12-20T06:04:19;4.20;99.90
5196;DHT22;2617;51.006;12.436;2023-12-20T06:09:20;4.30;99.90
5196;DHT22;2617;51.006;12.436;2023-12-20T06:14:22;4.30;99.90
5196;DHT22;2617;51.006;12.436;2023-12-20T06:19:24;4.30;99.90
5196;DHT22;2617;51.006;12.436;2023-12-20T06:24:26;4.30;99.90
5196;DHT22;2617;51.006;12.436;2023-12-20T06:29:29;4.30;99.90
5196;DHT22;2617;51.006;12.436;2023-12-20T06:34:30;4.30;99.90
5196;DHT22;2617;51.006;12.436;2023-12-20T06:39:32;4.30;99.90
5196;DHT22;2617;51.006;12.436;2023-12-20T06:44:34;4.30;99.90
5196;DHT22;2617;51.006;12.436;2023-12-20T06:49:35;4.30;99.90
5196;DHT22;2617;51.006;12.436;2023-12-20T06:54:37;4.30;99.90
5196;DHT22;2617;51.006;12.436;2023-12-20T06:59:40;4.20;99.90
5196;DHT22;2617;51.006;12.436;2023-12-20T07:04:41;4.20;99.90
5196;DHT22;2617;51.006;12.436;2023-12-20T07:09:42;4.20;99.90
5196;DHT22;2617;51.006;12.436;2023-12-20T07:14:44;4.30;99.90
5196;DHT22;2617;51.006;12.436;2023-12-20T07:19:46;4.30;99.90
5196;DHT22;2617;51.006;12.436;2023-12-20T07:24:47;4.30;99.90
5196;DHT22;2617;51.006;12.436;2023-12-20T07:29:49;4.30;99.90
5196;DHT22;2617;51.006;12.436;2023-12-20T07:34:52;4.20;99.90
5196;DHT22;2617;51.006;12.436;2023-12-20T07:39:53;4.20;99.90
5196;DHT22;2617;51.006;12.436;2023-12-20T07:44:56;4.20;99.90
5196;DHT22;2617;51.006;12.436;2023-12-20T07:49:58;4.20;99.90
5196;DHT22;2617;51.006;12.436;2023-12-20T07:55:00;4.40;99.90
5196;DHT22;2617;51.006;12.436;2023-12-20T08:00:02;4.40;99.90
5196;DHT22;2617;51.006;12.436;2023-12-20T08:05:04;4.50;99.90
5196;DHT22;2617;51.006;12.436;2023-12-20T08:10:06;4.60;99.90
5196;DHT22;2617;51.006;12.436;2023-12-20T08:15:08;4.70;99.90
5196;DHT22;2617;51.006;12.436;2023-12-20T08:20:10;4.90;99.90
5196;DHT22;2617;51.006;12.436;2023-12-20T08:25:12;4.90;99.90
5196;DHT22;2617;51.006;12.436;2023-12-20T08:30:14;4.90;99.90
5196;DHT22;2617;51.006;12.436;2023-12-20T08:35:16;4.90;99.90
5196;DHT22;2617;51.006;12.436;2023-12-20T08:40:18;4.90;99.90
5196;DHT22;2617;51.006;12.436;2023-12-20T08:45:19;5.00;99.90
5196;DHT22;2617;51.006;12.436;2023-12-20T08:50:21;4.90;99.90
5196;DHT22;2617;51.006;12.436;2023-12-20T08:55:23;4.90;99.90
5196;DHT22;2617;51.006;12.436;2023-12-20T09:00:25;5.10;99.90
5196;DHT22;2617;51.006;12.436;2023-12-20T09:05:27;5.30;99.90
5196;DHT22;2617;51.006;12.436;2023-12-20T09:10:29;5.70;99.90
5196;DHT22;2617;51.006;12.436;2023-12-20T09:15:30;5.70;99.90
5196;DHT22;2617;51.006;12.436;2023-12-20T09:20:33;5.60;99.90
5196;DHT22;2617;51.006;12.436;2023-12-20T09:25:34;5.50;99.90
5196;DHT22;2617;51.006;12.436;2023-12-20T09:30:36;5.40;99.90
5196;DHT22;2617;51.006;12.436;2023-12-20T09:35:37;5.30;99.90
5196;DHT22;2617;51.006;12.436;2023-12-20T09:40:41;5.30;99.90
5196;DHT22;2617;51.006;12.436;2023-12-20T09:45:41;5.30;99.90
5196;DHT22;2617;51.006;12.436;2023-12-20T09:50:43;5.30;99.90
5196;DHT22;2617;51.006;12.436;2023-12-20T09:55:44;5.40;99.90
5196;DHT22;2617;51.006;12.436;2023-12-20T10:00:47;5.50;99.90
5196;DHT22;2617;51.006;12.436;2023-12-20T10:05:49;5.50;99.90
5196;DHT22;2617;51.006;12.436;2023-12-20T10:10:50;5.70;99.90
5196;DHT22;2617;51.006;12.436;2023-12-20T10:15:54;5.90;99.90
5196;DHT22;2617;51.006;12.436;2023-12-20T10:20:54;6.00;99.90
5196;DHT22;2617;51.006;12.436;2023-12-20T10:25:57;6.10;99.90
5196;DHT22;2617;51.006;12.436;2023-12-20T10:30:59;6.30;99.90
5196;DHT22;2617;51.006;12.436;2023-12-20T10:36:01;6.30;99.90
5196;DHT22;2617;51.006;12.436;2023-12-20T10:41:03;6.40;99.90
5196;DHT22;2617;51.006;12.436;2023-12-20T10:46:04;6.40;99.90
5196;DHT22;2617;51.006;12.436;2023-12-20T10:51:07;6.60;99.90
5196;DHT22;2617;51.006;12.436;2023-12-20T10:56:09;6.60;99.90
5196;DHT22;2617;51.006;12.436;2023-12-20T11:01:14;6.60;99.90
5196;DHT22;2617;51.006;12.436;2023-12-20T11:11:33;6.90;99.90
5196;DHT22;2617;51.006;12.436;2023-12-20T11:16:33;6.90;99.90
5196;DHT22;2617;51.006;12.436;2023-12-20T11:21:34;6.80;99.90
5196;DHT22;2617;51.006;12.436;2023-12-20T11:26:36;6.90;99.90
5196;DHT22;2617;51.006;12.436;2023-12-20T11:31:40;6.80;99.90
5196;DHT22;2617;51.006;12.436;2023-12-20T11:36:42;6.60;99.90
5196;DHT22;2617;51.006;12.436;2023-12-20T11:41:44;6.50;99.90
5196;DHT22;2617;51.006;12.436;2023-12-20T11:46:45;6.50;99.90
5196;DHT22;2617;51.006;12.436;2023-12-20T11:51:47;6.50;99.90
5196;DHT22;2617;51.006;12.436;2023-12-20T11:56:48;6.70;99.90
5196;DHT22;2617;51.006;12.436;2023-12-20T12:01:50;6.80;99.90
5196;DHT22;2617;51.006;12.436;2023-12-20T12:06:52;6.90;99.90
5196;DHT22;2617;51.006;12.436;2023-12-20T12:11:54;6.90;99.90
5196;DHT22;2617;51.006;12.436;2023-12-20T12:16:56;7.00;99.90
5196;DHT22;2617;51.006;12.436;2023-12-20T12:22:04;7.20;99.90
5196;DHT22;2617;51.006;12.436;2023-12-20T12:27:06;7.40;99.90
5196;DHT22;2617;51.006;12.436;2023-12-20T12:32:08;7.40;99.90
5196;DHT22;2617;51.006;12.436;2023-12-20T12:37:10;7.30;99.90
5196;DHT22;2617;51.006;12.436;2023-12-20T12:42:12;7.20;99.90
5196;DHT22;2617;51.006;12.436;2023-12-20T12:47:14;7.30;99.90
5196;DHT22;2617;51.006;12.436;2023-12-20T12:52:16;7.30;99.90
5196;DHT22;2617;51.006;12.436;2023-12-20T12:57:18;7.30;99.90
5196;DHT22;2617;51.006;12.436;2023-12-20T13:02:19;7.20;99.90
5196;DHT22;2617;51.006;12.436;2023-12-20T13:07:21;7.30;99.90
5196;DHT22;2617;51.006;12.436;2023-12-20T13:12:23;7.50;99.90
5196;DHT22;2617;51.006;12.436;2023-12-20T13:17:25;7.50;99.90
5196;DHT22;2617;51.006;12.436;2023-12-20T13:22:27;7.30;99.90
5196;DHT22;2617;51.006;12.436;2023-12-20T13:27:29;7.30;99.90
5196;DHT22;2617;51.006;12.436;2023-12-20T13:32:31;7.30;99.90
5196;DHT22;2617;51.006;12.436;2023-12-20T13:37:33;7.20;99.90
5196;DHT22;2617;51.006;12.436;2023-12-20T13:42:35;7.10;99.90
5196;DHT22;2617;51.006;12.436;2023-12-20T13:47:38;6.90;99.90
5196;DHT22;2617;51.006;12.436;2023-12-20T13:52:39;6.90;99.90
5196;DHT22;2617;51.006;12.436;2023-12-20T13:57:41;6.80;99.90
5196;DHT22;2617;51.006;12.436;2023-12-20T14:02:43;6.80;99.90
5196;DHT22;2617;51.006;12.436;2023-12-20T14:07:45;6.70;99.90
5196;DHT22;2617;51.006;12.436;2023-12-20T14:12:46;6.50;99.90
5196;DHT22;2617;51.006;12.436;2023-12-20T14:17:48;6.30;99.90
5196;DHT22;2617;51.006;12.436;2023-12-20T14:22:50;6.10;99.90
5196;DHT22;2617;51.006;12.436;2023-12-20T14:27:52;6.00;99.90
5196;DHT22;2617;51.006;12.436;2023-12-20T14:32:53;5.90;99.90
5196;DHT22;2617;51.006;12.436;2023-12-20T14:37:56;5.70;99.90
5196;DHT22;2617;51.006;12.436;2023-12-20T14:42:58;5.70;99.90
5196;DHT22;2617;51.006;12.436;2023-12-20T14:48:00;5.60;99.90
5196;DHT22;2617;51.006;12.436;2023-12-20T14:53:02;5.70;99.90
5196;DHT22;2617;51.006;12.436;2023-12-20T14:58:05;5.50;99.90
5196;DHT22;2617;51.006;12.436;2023-12-20T15:03:06;5.50;99.90
5196;DHT22;2617;51.006;12.436;2023-12-20T15:08:08;5.40;99.90
5196;DHT22;2617;51.006;12.436;2023-12-20T15:13:10;5.40;99.90
5196;DHT22;2617;51.006;12.436;2023-12-20T15:18:12;5.40;99.90
5196;DHT22;2617;51.006;12.436;2023-12-20T15:23:13;5.40;99.90
5196;DHT22;2617;51.006;12.436;2023-12-20T15:28:15;5.50;99.90
5196;DHT22;2617;51.006;12.436;2023-12-20T15:33:17;5.40;99.90
5196;DHT22;2617;51.006;12.436;2023-12-20T15:38:19;5.40;99.90
5196;DHT22;2617;51.006;12.436;2023-12-20T15:43:21;5.40;99.90
5196;DHT22;2617;51.006;12.436;2023-12-20T15:48:23;5.40;99.90
5196;DHT22;2617;51.006;12.436;2023-12-20T15:53:24;5.40;99.90
5196;DHT22;2617;51.006;12.436;2023-12-20T15:58:26;5.40;99.90
5196;DHT22;2617;51.006;12.436;2023-12-20T16:03:28;5.50;99.90
5196;DHT22;2617;51.006;12.436;2023-12-20T16:08:30;5.60;99.90
5196;DHT22;2617;51.006;12.436;2023-12-20T16:13:32;5.70;99.90
5196;DHT22;2617;51.006;12.436;2023-12-20T16:18:34;5.70;99.90
5196;DHT22;2617;51.006;12.436;2023-12-20T16:23:36;5.70;99.90
5196;DHT22;2617;51.006;12.436;2023-12-20T16:28:38;5.80;99.90
5196;DHT22;2617;51.006;12.436;2023-12-20T16:33:39;5.90;99.90
5196;DHT22;2617;51.006;12.436;2023-12-20T16:38:41;6.00;99.90
5196;DHT22;2617;51.006;12.436;2023-12-20T16:43:43;6.00;99.90
5196;DHT22;2617;51.006;12.436;2023-12-20T16:48:45;6.00;99.90
5196;DHT22;2617;51.006;12.436;2023-12-20T16:53:47;6.00;99.90
5196;DHT22;2617;51.006;12.436;2023-12-20T16:58:49;5.90;99.90
5196;DHT22;2617;51.006;12.436;2023-12-20T17:03:51;6.00;99.90
5196;DHT22;2617;51.006;12.436;2023-12-20T17:08:52;6.00;99.90
5196;DHT22;2617;51.006;12.436;2023-12-20T17:13:54;6.00;99.90
5196;DHT22;2617;51.006;12.436;2023-12-20T17:18:56;5.90;99.90
5196;DHT22;2617;51.006;12.436;2023-12-20T17:23:58;5.90;99.90
5196;DHT22;2617;51.006;12.436;2023-12-20T17:29:00;5.90;99.90
5196;DHT22;2617;51.006;12.436;2023-12-20T17:34:02;5.90;99.90
5196;DHT22;2617;51.006;12.436;2023-12-20T17:39:04;6.00;99.90
5196;DHT22;2617;51.006;12.436;2023-12-20T17:44:05;6.00;99.90
5196;DHT22;2617;51.006;12.436;2023-12-20T17:49:07;6.00;99.90
5196;DHT22;2617;51.006;12.436;2023-12-20T17:54:09;6.10;99.90
5196;DHT22;2617;51.006;12.436;2023-12-20T17:59:11;6.10;99.90
5196;DHT22;2617;51.006;12.436;2023-12-20T18:04:16;6.10;99.90
5196;DHT22;2617;51.006;12.436;2023-12-20T18:09:18;6.10;99.90
5196;DHT22;2617;51.006;12.436;2023-12-20T18:14:19;5.90;99.90
5196;DHT22;2617;51.006;12.436;2023-12-20T18:19:21;5.90;99.90
5196;DHT22;2617;51.006;12.436;2023-12-20T18:24:23;5.90;99.90
5196;DHT22;2617;51.006;12.436;2023-12-20T18:29:24;5.90;99.90
5196;DHT22;2617;51.006;12.436;2023-12-20T18:34:26;5.80;99.90
5196;DHT22;2617;51.006;12.436;2023-12-20T18:39:28;5.90;99.90
5196;DHT22;2617;51.006;12.436;2023-12-20T18:44:30;5.80;99.90
5196;DHT22;2617;51.006;12.436;2023-12-20T18:49:33;5.80;99.90
5196;DHT22;2617;51.006;12.436;2023-12-20T18:54:35;5.70;99.90
5196;DHT22;2617;51.006;12.436;2023-12-20T18:59:37;5.70;99.90
5196;DHT22;2617;51.006;12.436;2023-12-20T19:04:39;5.60;99.90
5196;DHT22;2617;51.006;12.436;2023-12-20T19:09:40;5.60;99.90
5196;DHT22;2617;51.006;12.436;2023-12-20T19:14:42;5.60;99.90
5196;DHT22;2617;51.006;12.436;2023-12-20T19:19:44;5.50;99.90
5196;DHT22;2617;51.006;12.436;2023-12-20T19:24:45;5.50;99.90
5196;DHT22;2617;51.006;12.436;2023-12-20T19:29:47;5.40;99.90
5196;DHT22;2617;51.006;12.436;2023-12-20T19:34:49;5.40;99.90
5196;DHT22;2617;51.006;12.436;2023-12-20T19:39:51;5.40;99.90
5196;DHT22;2617;51.006;12.436;2023-12-20T19:44:52;5.50;99.90
5196;DHT22;2617;51.006;12.436;2023-12-20T19:49:54;5.40;99.90
5196;DHT22;2617;51.006;12.436;2023-12-20T19:54:56;5.40;99.90
5196;DHT22;2617;51.006;12.436;2023-12-20T19:59:57;5.40;99.90
5196;DHT22;2617;51.006;12.436;2023-12-20T20:04:59;5.40;99.90
5196;DHT22;2617;51.006;12.436;2023-12-20T20:10:02;5.50;99.90
5196;DHT22;2617;51.006;12.436;2023-12-20T20:15:04;5.50;99.90
5196;DHT22;2617;51.006;12.436;2023-12-20T20:20:07;5.40;99.90
5196;DHT22;2617;51.006;12.436;2023-12-20T20:25:09;5.40;99.90
5196;DHT22;2617;51.006;12.436;2023-12-20T20:30:11;5.40;99.90
5196;DHT22;2617;51.006;12.436;2023-12-20T20:35:13;5.40;99.90
5196;DHT22;2617;51.006;12.436;2023-12-20T20:40:15;5.40;99.90
5196;DHT22;2617;51.006;12.436;2023-12-20T20:45:16;5.30;99.90
5196;DHT22;2617;51.006;12.436;2023-12-20T20:50:18;5.30;99.90
5196;DHT22;2617;51.006;12.436;2023-12-20T20:55:20;5.30;99.90
5196;DHT22;2617;51.006;12.436;2023-12-20T21:00:22;5.40;99.90
5196;DHT22;2617;51.006;12.436;2023-12-20T21:05:24;5.40;99.90
5196;DHT22;2617;51.006;12.436;2023-12-20T21:10:26;5.40;99.90
5196;DHT22;2617;51.006;12.436;2023-12-20T21:15:27;5.40;99.90
5196;DHT22;2617;51.006;12.436;2023-12-20T21:20:30;5.60;99.90
5196;DHT22;2617;51.006;12.436;2023-12-20T21:25:32;5.50;99.90
5196;DHT22;2617;51.006;12.436;2023-12-20T21:30:36;5.50;99.90
5196;DHT22;2617;51.006;12.436;2023-12-20T21:35:37;5.60;99.90
5196;DHT22;2617;51.006;12.436;2023-12-20T21:40:39;5.60;99.90
5196;DHT22;2617;51.006;12.436;2023-12-20T21:45:40;5.50;99.90
5196;DHT22;2617;51.006;12.436;2023-12-20T21:50:42;5.60;99.90
5196;DHT22;2617;51.006;12.436;2023-12-20T21:55:44;5.60;99.90
5196;DHT22;2617;51.006;12.436;2023-12-20T22:00:46;5.60;99.90
5196;DHT22;2617;51.006;12.436;2023-12-20T22:05:47;5.60;99.90
5196;DHT22;2617;51.006;12.436;2023-12-20T22:10:49;5.60;99.90
5196;DHT22;2617;51.006;12.436;2023-12-20T22:15:51;5.50;99.90
5196;DHT22;2617;51.006;12.436;2023-12-20T22:20:52;5.60;99.90
5196;DHT22;2617;51.006;12.436;2023-12-20T22:25:55;5.50;99.90
5196;DHT22;2617;51.006;12.436;2023-12-20T22:30:57;5.50;99.90
5196;DHT22;2617;51.006;12.436;2023-12-20T22:35:59;5.50;99.90
5196;DHT22;2617;51.006;12.436;2023-12-20T22:41:01;5.50;99.90
5196;DHT22;2617;51.006;12.436;2023-12-20T22:46:03;5.50;99.90
5196;DHT22;2617;51.006;12.436;2023-12-20T22:51:04;5.60;99.90
5196;DHT22;2617;51.006;12.436;2023-12-20T22:56:07;5.60;99.90
5196;DHT22;2617;51.006;12.436;2023-12-20T23:06:29;5.70;99.90
5196;DHT22;2617;51.006;12.436;2023-12-20T23:11:37;5.70;99.90
5196;DHT22;2617;51.006;12.436;2023-12-20T23:16:39;5.70;99.90
5196;DHT22;2617;51.006;12.436;2023-12-20T23:21:41;5.80;99.90
5196;DHT22;2617;51.006;12.436;2023-12-20T23:26:44;5.80;99.90
5196;DHT22;2617;51.006;12.436;2023-12-20T23:31:46;5.80;99.90
5196;DHT22;2617;51.006;12.436;2023-12-20T23:36:48;5.80;99.90
5196;DHT22;2617;51.006;12.436;2023-12-20T23:41:50;5.80;99.90
5196;DHT22;2617;51.006;12.436;2023-12-20T23:46:52;5.80;99.90
5196;DHT22;2617;51.006;12.436;2023-12-20T23:51:54;5.80;99.90
5196;DHT22;2617;51.006;12.436;2023-12-20T23:56:55;5.80;99.90
